createdAt,value
2018-05-09T00:01:37.127Z,15.86
2018-05-09T00:04:04.694Z,15.78
2018-05-09T00:06:32.892Z,15.72
2018-05-09T00:09:00.421Z,15.64
2018-05-09T00:11:27.947Z,15.58
2018-05-09T00:13:56.619Z,15.49
2018-05-09T00:16:24.286Z,15.45
2018-05-09T00:18:52.275Z,15.41
2018-05-09T00:21:20.768Z,15.36
2018-05-09T00:23:49.039Z,15.34
2018-05-09T00:26:17.682Z,15.29
2018-05-09T00:28:45.855Z,15.21
2018-05-09T00:31:13.375Z,15.15
2018-05-09T00:33:40.927Z,15.12
2018-05-09T00:36:08.592Z,15.07
2018-05-09T00:38:36.146Z,15.04
2018-05-09T00:41:04.367Z,15.00
2018-05-09T00:43:31.891Z,14.93
2018-05-09T00:45:59.421Z,14.89
2018-05-09T00:48:28.004Z,14.82
2018-05-09T00:50:55.551Z,14.80
2018-05-09T00:53:23.733Z,14.77
2018-05-09T00:55:51.294Z,14.72
2018-05-09T00:58:18.887Z,14.68
2018-05-09T01:00:47.311Z,14.66
2018-05-09T01:03:14.867Z,14.61
2018-05-09T01:05:42.998Z,14.56
2018-05-09T01:08:10.536Z,14.51
2018-05-09T01:10:38.672Z,14.48
2018-05-09T01:13:06.203Z,14.43
2018-05-09T01:15:34.303Z,14.40
2018-05-09T01:18:02.815Z,14.34
2018-05-09T01:20:30.355Z,14.28
2018-05-09T01:22:57.895Z,14.16
2018-05-09T01:25:25.566Z,14.10
2018-05-09T01:27:54.006Z,14.05
2018-05-09T01:30:21.584Z,14.00
2018-05-09T01:32:49.637Z,13.94
2018-05-09T01:35:17.176Z,13.87
2018-05-09T01:37:45.369Z,13.80
2018-05-09T01:40:13.052Z,13.79
2018-05-09T01:42:40.581Z,13.79
2018-05-09T01:45:08.128Z,13.78
2018-05-09T01:47:36.173Z,13.77
2018-05-09T01:50:03.744Z,13.74
2018-05-09T01:52:31.271Z,13.71
2018-05-09T01:54:59.513Z,13.69
2018-05-09T01:57:27.044Z,13.67
2018-05-09T01:59:54.657Z,13.59
2018-05-09T02:02:22.764Z,13.51
2018-05-09T02:04:51.013Z,13.44
2018-05-09T02:07:18.567Z,13.40
2018-05-09T02:09:46.143Z,13.37
2018-05-09T02:12:13.700Z,13.36
2018-05-09T02:14:41.907Z,13.38
2018-05-09T02:17:10.175Z,13.36
2018-05-09T02:19:38.462Z,13.31
2018-05-09T02:22:06.003Z,13.27
2018-05-09T02:24:33.531Z,13.26
2018-05-09T02:27:01.786Z,13.23
2018-05-09T02:29:29.304Z,13.16
2018-05-09T02:31:57.556Z,13.11
2018-05-09T02:34:25.145Z,13.08
2018-05-09T02:36:53.959Z,13.06
2018-05-09T02:39:21.590Z,13.04
2018-05-09T02:41:49.203Z,13.01
2018-05-09T02:44:16.775Z,12.98
2018-05-09T02:46:44.789Z,12.94
2018-05-09T02:49:12.331Z,12.92
2018-05-09T02:51:39.879Z,12.90
2018-05-09T02:54:08.399Z,12.89
2018-05-09T02:56:35.955Z,12.86
2018-05-09T02:59:03.499Z,12.85
2018-05-09T03:01:32.761Z,12.91
2018-05-09T03:04:00.319Z,13.06
2018-05-09T03:06:28.708Z,13.36
2018-05-09T03:08:56.239Z,13.64
2018-05-09T03:11:24.621Z,14.00
2018-05-09T03:13:53.121Z,14.36
2018-05-09T03:16:20.661Z,14.74
2018-05-09T03:18:48.841Z,15.13
2018-05-09T03:21:16.376Z,15.55
2018-05-09T03:23:43.919Z,16.02
2018-05-09T03:26:12.099Z,16.46
2018-05-09T03:28:40.413Z,16.85
2018-05-09T03:31:08.610Z,17.24
2018-05-09T03:33:36.765Z,17.63
2018-05-09T03:36:04.326Z,17.91
2018-05-09T03:38:31.867Z,18.27
2018-05-09T03:40:59.426Z,18.65
2018-05-09T03:43:26.951Z,18.95
2018-05-09T03:45:56.272Z,19.19
2018-05-09T03:48:24.781Z,19.28
2018-05-09T03:50:52.593Z,19.47
2018-05-09T03:53:20.749Z,19.51
2018-05-09T03:55:48.250Z,19.37
2018-05-09T03:58:15.785Z,19.13
2018-05-09T04:00:43.914Z,18.89
2018-05-09T04:03:23.598Z,18.59
2018-05-09T04:06:04.161Z,18.28
2018-05-09T04:08:43.406Z,17.95
2018-05-09T04:11:11.674Z,17.60
2018-05-09T04:13:39.810Z,17.31
2018-05-09T04:16:07.352Z,17.03
2018-05-09T04:18:35.681Z,16.77
2018-05-09T04:21:03.223Z,16.64
2018-05-09T04:23:30.754Z,16.50
2018-05-09T04:25:59.109Z,16.41
2018-05-09T04:28:27.304Z,16.32
2018-05-09T04:30:58.627Z,16.30
2018-05-09T04:33:26.152Z,16.28
2018-05-09T04:35:54.590Z,16.20
2018-05-09T04:38:22.205Z,16.20
2018-05-09T04:40:49.730Z,16.18
2018-05-09T04:43:17.265Z,16.20
2018-05-09T04:45:44.825Z,16.22
2018-05-09T04:48:13.063Z,16.24
2018-05-09T04:50:40.600Z,16.30
2018-05-09T04:53:08.191Z,16.34
2018-05-09T04:55:35.938Z,16.34
2018-05-09T04:58:03.434Z,16.41
2018-05-09T05:00:31.395Z,16.45
2018-05-09T05:02:59.362Z,16.52
2018-05-09T05:05:27.510Z,16.60
2018-05-09T05:07:55.219Z,16.63
2018-05-09T05:10:24.344Z,16.69
2018-05-09T05:12:51.933Z,16.81
2018-05-09T05:15:19.803Z,16.91
2018-05-09T05:17:48.062Z,17.03
2018-05-09T05:20:15.606Z,17.13
2018-05-09T05:22:43.136Z,17.22
2018-05-09T05:25:10.732Z,17.31
2018-05-09T05:27:38.888Z,17.44
2018-05-09T05:30:06.415Z,17.49
2018-05-09T05:32:34.550Z,17.58
2018-05-09T05:35:02.126Z,17.70
2018-05-09T05:37:29.683Z,17.82
2018-05-09T05:39:57.274Z,17.91
2018-05-09T05:42:24.895Z,18.05
2018-05-09T05:44:52.777Z,18.13
2018-05-09T05:47:21.013Z,18.20
2018-05-09T05:49:48.655Z,18.30
2018-05-09T05:52:16.188Z,18.34
2018-05-09T05:54:44.650Z,18.44
2018-05-09T05:57:12.192Z,18.56
2018-05-09T05:59:39.746Z,18.67
2018-05-09T06:02:07.930Z,18.80
2018-05-09T06:04:35.685Z,18.92
2018-05-09T06:07:04.032Z,19.01
2018-05-09T06:09:31.572Z,19.10
2018-05-09T06:11:59.138Z,19.20
2018-05-09T06:14:27.250Z,19.23
2018-05-09T06:16:54.950Z,19.22
2018-05-09T06:19:22.891Z,19.30
2018-05-09T06:21:50.511Z,19.42
2018-05-09T06:24:18.078Z,19.54
2018-05-09T06:26:46.479Z,19.62
2018-05-09T06:29:14.646Z,19.66
2018-05-09T06:31:42.828Z,19.71
2018-05-09T06:34:10.359Z,19.77
2018-05-09T06:36:38.152Z,19.86
2018-05-09T06:39:06.565Z,19.85
2018-05-09T06:41:34.128Z,19.90
2018-05-09T06:44:01.678Z,19.93
2018-05-09T06:46:29.255Z,19.97
2018-05-09T06:48:57.233Z,20.03
2018-05-09T06:51:24.919Z,20.09
2018-05-09T06:53:52.596Z,20.17
2018-05-09T06:56:20.159Z,20.17
2018-05-09T06:58:47.730Z,20.24
2018-05-09T07:01:16.093Z,20.29
2018-05-09T07:03:44.511Z,20.29
2018-05-09T07:06:12.588Z,20.33
2018-05-09T07:08:40.047Z,20.32
2018-05-09T07:11:07.578Z,20.36
2018-05-09T07:13:35.859Z,20.42
2018-05-09T07:16:03.409Z,20.50
2018-05-09T07:18:31.976Z,20.62
2018-05-09T07:20:59.507Z,20.75
2018-05-09T07:23:27.668Z,20.87
2018-05-09T07:25:56.180Z,20.98
2018-05-09T07:28:24.476Z,21.05
2018-05-09T07:30:52.279Z,21.11
2018-05-09T07:33:20.407Z,21.20
2018-05-09T07:35:47.968Z,21.20
2018-05-09T07:38:15.495Z,21.27
2018-05-09T07:40:43.064Z,21.40
2018-05-09T07:43:10.663Z,21.48
2018-05-09T07:45:38.211Z,21.55
2018-05-09T07:48:06.546Z,21.65
2018-05-09T07:50:34.079Z,21.77
2018-05-09T07:53:01.613Z,21.87
2018-05-09T07:55:29.280Z,21.93
2018-05-09T07:57:56.776Z,22.04
2018-05-09T08:00:24.478Z,22.05
2018-05-09T08:02:53.110Z,22.09
2018-05-09T08:05:21.402Z,22.19
2018-05-09T08:07:49.026Z,22.27
2018-05-09T08:10:16.571Z,22.35
2018-05-09T08:12:44.157Z,22.47
2018-05-09T08:15:12.135Z,22.58
2018-05-09T08:17:40.151Z,22.72
2018-05-09T08:20:07.688Z,22.80
2018-05-09T08:22:35.765Z,22.91
2018-05-09T08:25:03.331Z,23.02
2018-05-09T08:27:32.937Z,23.08
2018-05-09T08:30:00.479Z,23.13
2018-05-09T08:32:28.678Z,23.17
2018-05-09T08:34:56.211Z,23.19
2018-05-09T08:37:23.834Z,23.21
2018-05-09T08:39:51.511Z,23.36
2018-05-09T08:42:19.106Z,23.52
2018-05-09T08:44:46.673Z,23.61
2018-05-09T08:47:14.723Z,23.69
2018-05-09T08:49:42.275Z,23.78
2018-05-09T08:52:09.819Z,23.85
2018-05-09T08:54:37.419Z,23.91
2018-05-09T08:57:04.951Z,23.97
2018-05-09T08:59:33.428Z,24.02
2018-05-09T09:02:01.631Z,24.00
2018-05-09T09:04:29.196Z,24.02
2018-05-09T09:06:57.804Z,23.97
2018-05-09T09:09:25.487Z,23.98
2018-05-09T09:11:53.204Z,24.07
2018-05-09T09:14:21.416Z,24.16
2018-05-09T09:16:48.971Z,24.23
2018-05-09T09:19:17.076Z,24.34
2018-05-09T09:21:44.639Z,24.43
2018-05-09T09:24:12.171Z,24.48
2018-05-09T09:26:40.323Z,24.55
2018-05-09T09:29:08.689Z,24.61
2018-05-09T09:31:36.656Z,24.60
2018-05-09T09:34:04.214Z,24.66
2018-05-09T09:36:31.766Z,24.75
2018-05-09T09:38:59.351Z,24.82
2018-05-09T09:41:26.967Z,24.85
2018-05-09T09:43:54.581Z,24.91
2018-05-09T09:46:22.361Z,24.93
2018-05-09T09:48:50.767Z,24.94
2018-05-09T09:51:18.303Z,24.99
2018-05-09T09:53:45.882Z,25.14
2018-05-09T09:56:13.767Z,25.21
2018-05-09T09:58:41.923Z,25.31
2018-05-09T10:01:10.374Z,25.37
2018-05-09T10:03:37.939Z,25.35
2018-05-09T10:06:06.031Z,25.42
2018-05-09T10:08:33.565Z,25.46
2018-05-09T10:11:01.154Z,25.39
2018-05-09T10:13:28.726Z,25.40
2018-05-09T10:15:56.986Z,25.43
2018-05-09T10:18:25.197Z,25.45
2018-05-09T10:20:52.886Z,25.53
2018-05-09T10:23:20.464Z,25.62
2018-05-09T10:25:48.588Z,25.60
2018-05-09T10:28:16.863Z,25.58
2018-05-09T10:30:44.422Z,25.68
2018-05-09T10:33:12.671Z,25.63
2018-05-09T10:35:40.231Z,25.61
2018-05-09T10:38:07.771Z,25.68
2018-05-09T10:40:35.368Z,25.72
2018-05-09T10:43:02.892Z,25.85
2018-05-09T10:45:30.502Z,25.82
2018-05-09T10:47:58.650Z,25.85
2018-05-09T10:50:26.217Z,25.87
2018-05-09T10:52:54.128Z,25.96
2018-05-09T10:55:22.424Z,26.01
2018-05-09T10:57:50.009Z,26.04
2018-05-09T11:00:17.559Z,26.09
2018-05-09T11:02:46.410Z,26.04
2018-05-09T11:05:14.518Z,26.01
2018-05-09T11:07:42.051Z,26.04
2018-05-09T11:10:09.604Z,26.11
2018-05-09T11:12:37.166Z,26.14
2018-05-09T11:15:05.154Z,26.16
2018-05-09T11:17:33.318Z,26.04
2018-05-09T11:20:00.840Z,25.98
2018-05-09T11:22:28.396Z,26.00
2018-05-09T11:24:55.991Z,26.00
2018-05-09T11:27:24.355Z,26.05
2018-05-09T11:29:51.944Z,26.10
2018-05-09T11:32:19.878Z,26.08
2018-05-09T11:34:47.420Z,26.14
2018-05-09T11:37:14.984Z,26.17
2018-05-09T11:39:42.537Z,26.19
2018-05-09T11:42:10.100Z,26.21
2018-05-09T11:44:37.658Z,26.20
2018-05-09T11:47:05.686Z,26.25
2018-05-09T11:49:33.236Z,26.31
2018-05-09T11:52:01.669Z,26.23
2018-05-09T11:54:29.235Z,26.29
2018-05-09T11:56:56.778Z,26.29
2018-05-09T11:59:24.363Z,26.27
2018-05-09T12:01:52.660Z,26.20
2018-05-09T12:04:21.015Z,26.21
2018-05-09T12:06:50.343Z,26.27
2018-05-09T12:09:17.895Z,26.29
2018-05-09T12:11:46.250Z,26.33
2018-05-09T12:14:14.676Z,26.33
2018-05-09T12:16:42.220Z,26.32
2018-05-09T12:19:10.491Z,26.32
2018-05-09T12:21:38.028Z,26.33
2018-05-09T12:24:05.577Z,26.31
2018-05-09T12:26:33.915Z,26.33
2018-05-09T12:29:01.887Z,26.31
2018-05-09T12:31:30.296Z,26.32
2018-05-09T12:33:57.856Z,26.35
2018-05-09T12:36:25.500Z,26.41
2018-05-09T12:38:53.185Z,26.37
2018-05-09T12:41:20.719Z,26.34
2018-05-09T12:43:48.248Z,26.33
2018-05-09T12:46:15.862Z,26.36
2018-05-09T12:48:44.561Z,26.44
2018-05-09T12:51:13.515Z,26.44
2018-05-09T12:53:41.063Z,26.40
2018-05-09T12:56:08.637Z,26.43
2018-05-09T12:58:36.234Z,26.42
2018-05-09T13:01:04.419Z,26.43
2018-05-09T13:03:31.949Z,26.52
2018-05-09T13:06:01.403Z,26.51
2018-05-09T13:08:29.507Z,26.47
2018-05-09T13:10:57.082Z,26.44
2018-05-09T13:13:25.004Z,26.38
2018-05-09T13:15:53.476Z,26.37
2018-05-09T13:18:22.051Z,26.38
2018-05-09T13:20:49.606Z,26.35
2018-05-09T13:23:17.150Z,26.37
2018-05-09T13:25:45.164Z,26.38
2018-05-09T13:28:13.387Z,26.34
2018-05-09T13:30:40.926Z,26.33
2018-05-09T13:33:08.932Z,26.32
2018-05-09T13:35:36.719Z,26.28
2018-05-09T13:38:04.278Z,26.32
2018-05-09T13:40:31.862Z,26.33
2018-05-09T13:42:59.458Z,26.33
2018-05-09T13:45:27.018Z,26.31
2018-05-09T13:47:55.335Z,26.22
2018-05-09T13:50:23.107Z,26.10
2018-05-09T13:52:50.695Z,26.04
2018-05-09T13:55:18.276Z,26.01
2018-05-09T13:57:45.824Z,25.94
2018-05-09T14:00:13.960Z,25.95
2018-05-09T14:02:42.260Z,25.88
2018-05-09T14:05:10.306Z,25.93
2018-05-09T14:07:38.391Z,25.85
2018-05-09T14:10:05.932Z,25.75
2018-05-09T14:12:33.478Z,25.78
2018-05-09T14:15:01.914Z,25.72
2018-05-09T14:17:29.940Z,25.65
2018-05-09T14:19:57.487Z,25.61
2018-05-09T14:22:25.942Z,25.49
2018-05-09T14:24:53.608Z,25.54
2018-05-09T14:27:21.819Z,25.49
2018-05-09T14:29:49.380Z,25.47
2018-05-09T14:32:17.547Z,25.43
2018-05-09T14:34:45.081Z,25.41
2018-05-09T14:37:12.628Z,25.36
2018-05-09T14:39:40.213Z,25.21
2018-05-09T14:42:07.743Z,25.22
2018-05-09T14:44:37.103Z,25.22
2018-05-09T14:47:05.380Z,25.17
2018-05-09T14:49:32.899Z,25.15
2018-05-09T14:52:00.557Z,25.11
2018-05-09T14:54:28.127Z,25.05
2018-05-09T14:56:55.669Z,25.08
2018-05-09T14:59:24.122Z,25.07
2018-05-09T15:01:52.475Z,25.09
2018-05-09T15:04:20.473Z,25.16
2018-05-09T15:06:48.496Z,25.15
2018-05-09T15:09:16.047Z,25.12
2018-05-09T15:11:43.800Z,25.11
2018-05-09T15:14:12.167Z,25.16
2018-05-09T15:16:39.729Z,25.21
2018-05-09T15:19:07.747Z,25.19
2018-05-09T15:21:35.291Z,25.11
2018-05-09T15:24:03.456Z,25.23
2018-05-09T15:26:31.516Z,25.47
2018-05-09T15:28:59.706Z,25.72
2018-05-09T15:31:27.792Z,26.19
2018-05-09T15:33:55.742Z,26.80
2018-05-09T15:36:23.412Z,27.31
2018-05-09T15:38:51.872Z,27.77
2018-05-09T15:41:19.356Z,28.22
2018-05-09T15:43:46.883Z,28.67
2018-05-09T15:46:14.462Z,29.03
2018-05-09T15:48:42.467Z,29.31
2018-05-09T15:51:09.998Z,29.56
2018-05-09T15:53:37.554Z,29.67
2018-05-09T15:56:05.119Z,29.79
2018-05-09T15:58:32.675Z,29.87
2018-05-09T16:01:01.012Z,29.71
2018-05-09T16:03:29.026Z,29.72
2018-05-09T16:05:57.311Z,30.04
2018-05-09T16:08:25.850Z,30.10
2018-05-09T16:10:53.456Z,30.31
2018-05-09T16:13:21.088Z,30.32
2018-05-09T16:15:49.090Z,30.40
2018-05-09T16:18:17.150Z,30.51
2018-05-09T16:20:45.513Z,30.36
2018-05-09T16:23:13.051Z,30.37
2018-05-09T16:25:41.091Z,30.34
2018-05-09T16:28:09.316Z,30.31
2018-05-09T16:30:36.987Z,30.53
2018-05-09T16:33:05.049Z,30.54
2018-05-09T16:35:32.643Z,30.57
2018-05-09T16:38:00.250Z,30.89
2018-05-09T16:40:27.828Z,30.89
2018-05-09T16:42:55.425Z,30.87
2018-05-09T16:45:23.088Z,30.56
2018-05-09T16:47:51.529Z,30.27
2018-05-09T16:50:19.079Z,30.20
2018-05-09T16:52:46.643Z,30.13
2018-05-09T16:55:14.211Z,30.20
2018-05-09T16:57:41.749Z,30.38
2018-05-09T17:00:09.797Z,30.39
2018-05-09T17:02:38.287Z,30.47
2018-05-09T17:05:06.766Z,30.11
2018-05-09T17:07:34.295Z,29.83
2018-05-09T17:10:01.856Z,29.60
2018-05-09T17:12:29.442Z,29.32
2018-05-09T17:14:58.231Z,29.09
2018-05-09T17:17:26.536Z,28.90
2018-05-09T17:19:55.054Z,28.79
2018-05-09T17:22:33.440Z,28.35
2018-05-09T17:25:01.047Z,28.30
2018-05-09T17:27:29.272Z,28.20
2018-05-09T17:29:56.847Z,28.11
2018-05-09T17:32:24.855Z,27.94
2018-05-09T17:34:52.575Z,27.73
2018-05-09T17:37:20.165Z,27.58
2018-05-09T17:39:47.744Z,27.47
2018-05-09T17:42:15.284Z,27.38
2018-05-09T17:44:42.953Z,27.44
2018-05-09T17:47:11.356Z,27.30
2018-05-09T17:49:38.894Z,27.08
2018-05-09T17:52:06.430Z,26.99
2018-05-09T17:54:34.015Z,26.83
2018-05-09T17:57:02.487Z,26.72
2018-05-09T17:59:30.515Z,26.55
2018-05-09T18:01:58.599Z,26.39
2018-05-09T18:04:26.142Z,26.20
2018-05-09T18:06:54.310Z,26.05
2018-05-09T18:09:21.876Z,25.92
2018-05-09T18:11:49.401Z,25.85
2018-05-09T18:14:17.450Z,25.74
2018-05-09T18:16:45.630Z,25.49
2018-05-09T18:19:13.801Z,24.67
2018-05-09T18:21:41.331Z,23.70
2018-05-09T18:24:08.878Z,22.90
2018-05-09T18:26:37.147Z,22.18
2018-05-09T18:29:05.588Z,21.66
2018-05-09T18:31:33.701Z,21.20
2018-05-09T18:34:01.243Z,20.73
2018-05-09T18:36:28.792Z,20.25
2018-05-09T18:38:56.363Z,19.85
2018-05-09T18:41:24.743Z,19.57
2018-05-09T18:43:52.335Z,19.22
2018-05-09T18:46:20.138Z,18.94
2018-05-09T18:48:48.476Z,18.74
2018-05-09T18:51:16.019Z,18.59
2018-05-09T18:53:43.545Z,18.36
2018-05-09T18:56:11.927Z,18.09
2018-05-09T18:58:39.470Z,17.92
2018-05-09T19:01:07.554Z,17.67
2018-05-09T19:03:36.443Z,17.46
2018-05-09T19:06:04.571Z,17.23
2018-05-09T19:08:32.109Z,17.02
2018-05-09T19:10:59.635Z,16.87
2018-05-09T19:13:27.788Z,16.76
2018-05-09T19:15:55.851Z,16.62
2018-05-09T19:18:25.043Z,16.43
2018-05-09T19:20:52.927Z,16.30
2018-05-09T19:23:20.456Z,16.19
2018-05-09T19:25:49.031Z,16.02
2018-05-09T19:28:17.107Z,15.86
2018-05-09T19:30:44.653Z,15.75
2018-05-09T19:33:12.959Z,15.62
2018-05-09T19:35:40.504Z,15.49
2018-05-09T19:38:08.044Z,15.41
2018-05-09T19:40:35.650Z,15.30
2018-05-09T19:43:03.199Z,15.20
2018-05-09T19:45:30.738Z,15.07
2018-05-09T19:47:59.996Z,14.93
2018-05-09T19:50:27.551Z,14.84
2018-05-09T19:52:55.857Z,14.76
2018-05-09T19:55:24.349Z,14.69
2018-05-09T19:57:51.903Z,14.59
2018-05-09T20:00:20.037Z,14.50
2018-05-09T20:02:48.145Z,14.42
2018-05-09T20:05:16.519Z,14.31
2018-05-09T20:07:44.060Z,14.27
2018-05-09T20:10:12.334Z,14.17
2018-05-09T20:12:40.623Z,14.05
2018-05-09T20:15:09.054Z,13.95
2018-05-09T20:17:37.053Z,13.83
2018-05-09T20:20:05.679Z,13.74
2018-05-09T20:22:33.828Z,13.64
2018-05-09T20:25:01.426Z,13.59
2018-05-09T20:27:29.677Z,13.54
2018-05-09T20:29:57.211Z,13.49
2018-05-09T20:32:33.284Z,13.41
2018-05-09T20:35:00.836Z,13.31
2018-05-09T20:37:28.374Z,13.23
2018-05-09T20:39:55.963Z,13.17
2018-05-09T20:42:24.523Z,13.09
2018-05-09T20:44:52.272Z,13.01
2018-05-09T20:47:20.353Z,12.93
2018-05-09T20:49:48.466Z,12.87
2018-05-09T20:52:16.090Z,12.82
2018-05-09T20:54:43.672Z,12.80
2018-05-09T20:57:11.263Z,12.77
2018-05-09T20:59:39.436Z,12.72
2018-05-09T21:02:07.699Z,12.67
2018-05-09T21:04:35.260Z,12.62
2018-05-09T21:07:03.408Z,12.56
2018-05-09T21:09:31.595Z,12.52
2018-05-09T21:12:09.238Z,12.49
2018-05-09T21:14:37.757Z,12.42
2018-05-09T21:17:05.793Z,12.37
2018-05-09T21:19:33.898Z,12.35
2018-05-09T21:22:01.469Z,12.32
2018-05-09T21:24:29.002Z,12.25
2018-05-09T21:26:57.057Z,12.19
2018-05-09T21:29:25.346Z,12.13
2018-05-09T21:31:53.654Z,12.05
2018-05-09T21:34:21.186Z,11.97
2018-05-09T21:36:48.768Z,11.93
2018-05-09T21:39:16.365Z,11.88
2018-05-09T21:41:43.924Z,11.85
2018-05-09T21:44:11.454Z,11.83
2018-05-09T21:46:39.950Z,11.81
2018-05-09T21:49:08.265Z,11.80
2018-05-09T21:51:35.922Z,11.72
2018-05-09T21:54:03.459Z,11.67
2018-05-09T21:56:31.032Z,11.63
2018-05-09T21:58:58.579Z,11.61
2018-05-09T22:01:26.761Z,11.60
2018-05-09T22:03:54.442Z,11.60
2018-05-09T22:06:23.615Z,11.59
2018-05-09T22:08:51.172Z,11.55
2018-05-09T22:11:18.857Z,11.49
2018-05-09T22:13:47.135Z,11.40
2018-05-09T22:16:14.670Z,11.35
2018-05-09T22:18:42.828Z,11.31
2018-05-09T22:21:10.362Z,11.22
2018-05-09T22:23:37.898Z,11.19
2018-05-09T22:26:06.332Z,11.16
2018-05-09T22:28:34.635Z,11.10
2018-05-09T22:31:03.033Z,11.04
2018-05-09T22:33:31.338Z,11.00
2018-05-09T22:35:58.905Z,10.95
2018-05-09T22:38:26.438Z,10.94
2018-05-09T22:40:54.858Z,10.88
2018-05-09T22:43:22.915Z,10.83
2018-05-09T22:45:51.238Z,10.78
2018-05-09T22:48:19.359Z,10.77
2018-05-09T22:50:46.916Z,10.76
2018-05-09T22:53:14.455Z,10.76
2018-05-09T22:55:42.068Z,10.73
2018-05-09T22:58:09.616Z,10.71
2018-05-09T23:00:39.116Z,10.68
2018-05-09T23:03:06.643Z,10.68
2018-05-09T23:05:35.482Z,10.62
2018-05-09T23:08:03.020Z,10.57
2018-05-09T23:10:30.547Z,10.56
2018-05-09T23:12:58.105Z,10.54
2018-05-09T23:15:26.219Z,10.51
2018-05-09T23:17:54.655Z,10.48
2018-05-09T23:20:22.425Z,10.44
2018-05-09T23:22:49.950Z,10.39
2018-05-09T23:25:17.558Z,10.33
2018-05-09T23:27:45.812Z,10.29
2018-05-09T23:30:14.013Z,10.24
2018-05-09T23:32:41.956Z,10.21
2018-05-09T23:35:09.488Z,10.20
2018-05-09T23:37:37.033Z,10.16
2018-05-09T23:40:05.051Z,10.15
2018-05-09T23:42:33.548Z,10.14
2018-05-09T23:45:01.093Z,10.14
2018-05-09T23:47:29.284Z,10.15
2018-05-09T23:49:56.827Z,10.16
2018-05-09T23:52:24.487Z,10.17
2018-05-09T23:54:52.405Z,10.15
2018-05-09T23:57:19.959Z,10.10
2018-05-09T23:59:48.219Z,10.08
